sensor_id;sensor_type;location;lat;lon;timestamp;pressure;altitude;pressure_sealevel;temperature;humidity
28448;BME280;15675;52.870;-1.416;2024-01-10T00:01:17;102836.56;;;3.12;100.00
28448;BME280;15675;52.870;-1.416;2024-01-10T00:03:42;102835.25;;;3.05;100.00
28448;BME280;15675;52.870;-1.416;2024-01-10T00:06:08;102839.50;;;3.05;100.00
28448;BME280;15675;52.870;-1.416;2024-01-10T00:08:34;102832.97;;;2.97;100.00
28448;BME280;15675;52.870;-1.416;2024-01-10T00:11:00;102842.31;;;3.21;100.00
28448;BME280;15675;52.870;-1.416;2024-01-10T00:13:26;102830.34;;;3.08;100.00
28448;BME280;15675;52.870;-1.416;2024-01-10T00:15:53;102829.03;;;3.40;100.00
28448;BME280;15675;52.870;-1.416;2024-01-10T00:18:18;102818.66;;;3.00;100.00
28448;BME280;15675;52.870;-1.416;2024-01-10T00:20:44;102827.13;;;3.24;100.00
28448;BME280;15675;52.870;-1.416;2024-01-10T00:23:09;102817.72;;;3.11;100.00
28448;BME280;15675;52.870;-1.416;2024-01-10T00:25:35;102815.25;;;2.88;100.00
28448;BME280;15675;52.870;-1.416;2024-01-10T00:28:00;102812.53;;;2.98;100.00
28448;BME280;15675;52.870;-1.416;2024-01-10T00:30:26;102811.69;;;3.11;100.00
28448;BME280;15675;52.870;-1.416;2024-01-10T00:32:51;102810.53;;;3.19;100.00
28448;BME280;15675;52.870;-1.416;2024-01-10T00:35:17;102810.41;;;3.18;100.00
28448;BME280;15675;52.870;-1.416;2024-01-10T00:37:42;102812.97;;;3.18;100.00
28448;BME280;15675;52.870;-1.416;2024-01-10T00:40:09;102798.50;;;2.93;100.00
28448;BME280;15675;52.870;-1.416;2024-01-10T00:42:35;102804.94;;;3.00;100.00
28448;BME280;15675;52.870;-1.416;2024-01-10T00:45:01;102803.91;;;3.09;100.00
28448;BME280;15675;52.870;-1.416;2024-01-10T00:47:27;102795.97;;;3.06;100.00
28448;BME280;15675;52.870;-1.416;2024-01-10T00:49:52;102789.88;;;3.18;100.00
28448;BME280;15675;52.870;-1.416;2024-01-10T00:52:17;102775.09;;;3.14;100.00
28448;BME280;15675;52.870;-1.416;2024-01-10T00:54:43;102778.22;;;3.09;100.00
28448;BME280;15675;52.870;-1.416;2024-01-10T00:57:09;102786.06;;;2.99;100.00
28448;BME280;15675;52.870;-1.416;2024-01-10T00:59:35;102780.22;;;3.14;100.00
28448;BME280;15675;52.870;-1.416;2024-01-10T01:02:03;102774.47;;;3.04;100.00
28448;BME280;15675;52.870;-1.416;2024-01-10T01:04:29;102770.19;;;2.91;100.00
28448;BME280;15675;52.870;-1.416;2024-01-10T01:06:54;102775.56;;;3.08;100.00
28448;BME280;15675;52.870;-1.416;2024-01-10T01:09:20;102767.97;;;2.84;100.00
28448;BME280;15675;52.870;-1.416;2024-01-10T01:11:45;102765.78;;;3.02;100.00
28448;BME280;15675;52.870;-1.416;2024-01-10T01:14:11;102757.28;;;3.03;100.00
28448;BME280;15675;52.870;-1.416;2024-01-10T01:16:36;102764.66;;;2.85;100.00
28448;BME280;15675;52.870;-1.416;2024-01-10T01:19:02;102765.53;;;2.99;100.00
28448;BME280;15675;52.870;-1.416;2024-01-10T01:21:28;102756.09;;;2.98;100.00
28448;BME280;15675;52.870;-1.416;2024-01-10T01:23:54;102765.91;;;2.92;100.00
28448;BME280;15675;52.870;-1.416;2024-01-10T01:26:19;102760.59;;;2.89;100.00
28448;BME280;15675;52.870;-1.416;2024-01-10T01:28:45;102751.44;;;2.92;100.00
28448;BME280;15675;52.870;-1.416;2024-01-10T01:31:10;102758.09;;;3.02;100.00
28448;BME280;15675;52.870;-1.416;2024-01-10T01:33:36;102762.47;;;2.91;100.00
28448;BME280;15675;52.870;-1.416;2024-01-10T01:36:05;102751.34;;;3.04;100.00
28448;BME280;15675;52.870;-1.416;2024-01-10T01:38:30;102756.28;;;3.01;100.00
28448;BME280;15675;52.870;-1.416;2024-01-10T01:40:56;102762.78;;;2.96;100.00
28448;BME280;15675;52.870;-1.416;2024-01-10T01:43:23;102751.25;;;3.03;100.00
28448;BME280;15675;52.870;-1.416;2024-01-10T01:45:51;102767.38;;;3.14;100.00
28448;BME280;15675;52.870;-1.416;2024-01-10T01:48:18;102756.78;;;3.09;100.00
28448;BME280;15675;52.870;-1.416;2024-01-10T01:50:45;102746.44;;;3.07;100.00
28448;BME280;15675;52.870;-1.416;2024-01-10T01:53:12;102749.81;;;3.20;100.00
28448;BME280;15675;52.870;-1.416;2024-01-10T01:55:38;102755.13;;;3.09;100.00
28448;BME280;15675;52.870;-1.416;2024-01-10T01:58:04;102745.16;;;3.14;100.00
28448;BME280;15675;52.870;-1.416;2024-01-10T02:00:29;102747.09;;;3.05;100.00
28448;BME280;15675;52.870;-1.416;2024-01-10T02:02:57;102751.59;;;3.21;100.00
28448;BME280;15675;52.870;-1.416;2024-01-10T02:05:24;102752.19;;;3.17;100.00
28448;BME280;15675;52.870;-1.416;2024-01-10T02:07:51;102761.53;;;3.16;100.00
28448;BME280;15675;52.870;-1.416;2024-01-10T02:10:17;102747.53;;;3.11;100.00
28448;BME280;15675;52.870;-1.416;2024-01-10T02:12:43;102759.69;;;3.27;100.00
28448;BME280;15675;52.870;-1.416;2024-01-10T02:15:09;102763.63;;;3.22;100.00
28448;BME280;15675;52.870;-1.416;2024-01-10T02:17:34;102750.94;;;3.37;100.00
28448;BME280;15675;52.870;-1.416;2024-01-10T02:20:14;102747.94;;;3.17;100.00
28448;BME280;15675;52.870;-1.416;2024-01-10T02:22:43;102745.59;;;3.34;100.00
28448;BME280;15675;52.870;-1.416;2024-01-10T02:25:12;102747.59;;;2.99;100.00
28448;BME280;15675;52.870;-1.416;2024-01-10T02:27:38;102752.78;;;3.26;100.00
28448;BME280;15675;52.870;-1.416;2024-01-10T02:30:05;102759.88;;;3.17;100.00
28448;BME280;15675;52.870;-1.416;2024-01-10T02:32:31;102754.94;;;3.20;100.00
28448;BME280;15675;52.870;-1.416;2024-01-10T02:34:57;102760.38;;;3.11;100.00
28448;BME280;15675;52.870;-1.416;2024-01-10T02:37:23;102747.66;;;3.26;100.00
28448;BME280;15675;52.870;-1.416;2024-01-10T02:39:49;102749.28;;;3.12;100.00
28448;BME280;15675;52.870;-1.416;2024-01-10T02:42:14;102754.38;;;3.24;100.00
28448;BME280;15675;52.870;-1.416;2024-01-10T02:44:40;102753.34;;;3.22;100.00
28448;BME280;15675;52.870;-1.416;2024-01-10T02:47:06;102741.19;;;3.06;100.00
28448;BME280;15675;52.870;-1.416;2024-01-10T02:49:32;102737.19;;;3.36;100.00
28448;BME280;15675;52.870;-1.416;2024-01-10T02:51:58;102752.88;;;3.14;100.00
28448;BME280;15675;52.870;-1.416;2024-01-10T02:54:23;102748.94;;;3.33;100.00
28448;BME280;15675;52.870;-1.416;2024-01-10T02:56:49;102747.19;;;3.45;100.00
28448;BME280;15675;52.870;-1.416;2024-01-10T02:59:14;102753.16;;;3.19;100.00
28448;BME280;15675;52.870;-1.416;2024-01-10T03:01:40;102753.25;;;3.20;100.00
28448;BME280;15675;52.870;-1.416;2024-01-10T03:04:05;102747.34;;;3.35;100.00
28448;BME280;15675;52.870;-1.416;2024-01-10T03:06:31;102751.38;;;3.18;100.00
28448;BME280;15675;52.870;-1.416;2024-01-10T03:08:56;102753.94;;;3.18;100.00
28448;BME280;15675;52.870;-1.416;2024-01-10T03:11:22;102746.38;;;3.33;100.00
28448;BME280;15675;52.870;-1.416;2024-01-10T03:13:49;102747.16;;;3.32;100.00
28448;BME280;15675;52.870;-1.416;2024-01-10T03:16:15;102754.97;;;3.33;100.00
28448;BME280;15675;52.870;-1.416;2024-01-10T03:18:40;102746.56;;;3.36;100.00
28448;BME280;15675;52.870;-1.416;2024-01-10T03:21:07;102748.25;;;3.35;100.00
28448;BME280;15675;52.870;-1.416;2024-01-10T03:23:32;102746.66;;;3.37;99.57
28448;BME280;15675;52.870;-1.416;2024-01-10T03:26:01;102744.59;;;3.32;100.00
28448;BME280;15675;52.870;-1.416;2024-01-10T03:28:27;102761.25;;;3.11;100.00
28448;BME280;15675;52.870;-1.416;2024-01-10T03:30:52;102753.69;;;3.26;100.00
28448;BME280;15675;52.870;-1.416;2024-01-10T03:33:18;102746.28;;;3.31;100.00
28448;BME280;15675;52.870;-1.416;2024-01-10T03:35:43;102745.91;;;3.38;99.49
28448;BME280;15675;52.870;-1.416;2024-01-10T03:38:09;102749.66;;;3.43;98.79
28448;BME280;15675;52.870;-1.416;2024-01-10T03:40:34;102744.88;;;3.36;98.96
28448;BME280;15675;52.870;-1.416;2024-01-10T03:43:00;102754.38;;;3.24;98.61
28448;BME280;15675;52.870;-1.416;2024-01-10T03:45:26;102744.13;;;3.51;98.56
28448;BME280;15675;52.870;-1.416;2024-01-10T03:47:51;102740.25;;;3.31;98.90
28448;BME280;15675;52.870;-1.416;2024-01-10T03:50:19;102749.91;;;3.21;99.08
28448;BME280;15675;52.870;-1.416;2024-01-10T03:52:45;102746.09;;;3.41;99.33
28448;BME280;15675;52.870;-1.416;2024-01-10T03:55:14;102751.13;;;3.40;98.91
28448;BME280;15675;52.870;-1.416;2024-01-10T03:57:41;102748.66;;;3.28;99.15
28448;BME280;15675;52.870;-1.416;2024-01-10T04:00:08;102737.56;;;3.16;99.08
28448;BME280;15675;52.870;-1.416;2024-01-10T04:02:36;102736.00;;;3.31;98.89
28448;BME280;15675;52.870;-1.416;2024-01-10T04:05:01;102744.59;;;3.18;98.31
28448;BME280;15675;52.870;-1.416;2024-01-10T04:07:27;102734.41;;;3.20;97.63
28448;BME280;15675;52.870;-1.416;2024-01-10T04:09:52;102738.47;;;3.43;97.54
28448;BME280;15675;52.870;-1.416;2024-01-10T04:12:18;102739.75;;;3.23;96.63
28448;BME280;15675;52.870;-1.416;2024-01-10T04:14:43;102738.00;;;3.35;96.76
28448;BME280;15675;52.870;-1.416;2024-01-10T04:17:09;102722.78;;;3.38;95.57
28448;BME280;15675;52.870;-1.416;2024-01-10T04:19:34;102726.44;;;3.28;95.52
28448;BME280;15675;52.870;-1.416;2024-01-10T04:22:00;102731.88;;;3.47;95.71
28448;BME280;15675;52.870;-1.416;2024-01-10T04:24:26;102730.59;;;3.40;95.33
28448;BME280;15675;52.870;-1.416;2024-01-10T04:26:51;102726.81;;;3.35;94.42
28448;BME280;15675;52.870;-1.416;2024-01-10T04:29:17;102729.19;;;3.32;94.91
28448;BME280;15675;52.870;-1.416;2024-01-10T04:31:42;102733.84;;;3.64;93.80
28448;BME280;15675;52.870;-1.416;2024-01-10T04:34:08;102720.22;;;3.38;93.86
28448;BME280;15675;52.870;-1.416;2024-01-10T04:36:33;102715.66;;;3.21;93.54
28448;BME280;15675;52.870;-1.416;2024-01-10T04:38:59;102717.13;;;3.17;94.02
28448;BME280;15675;52.870;-1.416;2024-01-10T04:41:25;102724.16;;;3.20;94.03
28448;BME280;15675;52.870;-1.416;2024-01-10T04:43:51;102721.00;;;3.37;94.18
28448;BME280;15675;52.870;-1.416;2024-01-10T04:46:17;102706.97;;;3.19;93.79
28448;BME280;15675;52.870;-1.416;2024-01-10T04:48:43;102714.38;;;3.27;94.39
28448;BME280;15675;52.870;-1.416;2024-01-10T04:51:08;102714.50;;;3.42;94.49
28448;BME280;15675;52.870;-1.416;2024-01-10T04:53:34;102713.72;;;3.43;94.00
28448;BME280;15675;52.870;-1.416;2024-01-10T04:55:59;102711.53;;;3.50;93.99
28448;BME280;15675;52.870;-1.416;2024-01-10T04:58:25;102715.66;;;3.74;93.59
28448;BME280;15675;52.870;-1.416;2024-01-10T05:00:51;102713.72;;;3.43;94.34
28448;BME280;15675;52.870;-1.416;2024-01-10T05:03:16;102708.78;;;3.47;94.09
28448;BME280;15675;52.870;-1.416;2024-01-10T05:05:42;102714.88;;;3.49;95.28
28448;BME280;15675;52.870;-1.416;2024-01-10T05:08:08;102713.59;;;3.42;96.09
28448;BME280;15675;52.870;-1.416;2024-01-10T05:10:33;102703.72;;;3.35;95.82
28448;BME280;15675;52.870;-1.416;2024-01-10T05:12:59;102706.69;;;3.41;96.94
28448;BME280;15675;52.870;-1.416;2024-01-10T05:15:24;102709.84;;;3.37;96.04
28448;BME280;15675;52.870;-1.416;2024-01-10T05:17:50;102706.38;;;3.23;98.13
28448;BME280;15675;52.870;-1.416;2024-01-10T05:20:15;102709.34;;;3.69;98.27
28448;BME280;15675;52.870;-1.416;2024-01-10T05:22:42;102706.19;;;3.47;98.18
28448;BME280;15675;52.870;-1.416;2024-01-10T05:25:07;102704.59;;;3.75;98.30
28448;BME280;15675;52.870;-1.416;2024-01-10T05:27:33;102704.91;;;3.53;98.75
28448;BME280;15675;52.870;-1.416;2024-01-10T05:29:58;102705.19;;;3.71;98.61
28448;BME280;15675;52.870;-1.416;2024-01-10T05:32:25;102702.91;;;3.76;98.81
28448;BME280;15675;52.870;-1.416;2024-01-10T05:34:52;102691.06;;;3.78;97.99
28448;BME280;15675;52.870;-1.416;2024-01-10T05:37:18;102692.53;;;3.48;98.45
28448;BME280;15675;52.870;-1.416;2024-01-10T05:39:43;102696.31;;;3.39;100.00
28448;BME280;15675;52.870;-1.416;2024-01-10T05:42:09;102689.81;;;3.58;100.00
28448;BME280;15675;52.870;-1.416;2024-01-10T05:44:34;102689.41;;;3.65;99.88
28448;BME280;15675;52.870;-1.416;2024-01-10T05:47:00;102685.53;;;3.58;100.00
28448;BME280;15675;52.870;-1.416;2024-01-10T05:49:26;102681.91;;;3.41;100.00
28448;BME280;15675;52.870;-1.416;2024-01-10T05:51:52;102683.50;;;3.39;100.00
28448;BME280;15675;52.870;-1.416;2024-01-10T05:54:18;102676.84;;;3.43;100.00
28448;BME280;15675;52.870;-1.416;2024-01-10T05:56:44;102672.72;;;3.32;100.00
28448;BME280;15675;52.870;-1.416;2024-01-10T05:59:09;102674.38;;;3.44;100.00
28448;BME280;15675;52.870;-1.416;2024-01-10T06:01:37;102675.66;;;3.24;100.00
28448;BME280;15675;52.870;-1.416;2024-01-10T06:04:06;102676.19;;;3.32;100.00
28448;BME280;15675;52.870;-1.416;2024-01-10T06:06:31;102673.09;;;3.51;100.00
28448;BME280;15675;52.870;-1.416;2024-01-10T06:08:57;102670.69;;;3.68;100.00
28448;BME280;15675;52.870;-1.416;2024-01-10T06:11:23;102666.38;;;3.53;100.00
28448;BME280;15675;52.870;-1.416;2024-01-10T06:13:49;102679.13;;;3.52;100.00
28448;BME280;15675;52.870;-1.416;2024-01-10T06:16:14;102675.34;;;3.73;100.00
28448;BME280;15675;52.870;-1.416;2024-01-10T06:18:40;102677.13;;;3.48;100.00
28448;BME280;15675;52.870;-1.416;2024-01-10T06:21:06;102666.88;;;3.48;100.00
28448;BME280;15675;52.870;-1.416;2024-01-10T06:23:31;102673.50;;;3.44;100.00
28448;BME280;15675;52.870;-1.416;2024-01-10T06:25:56;102674.50;;;3.19;100.00
28448;BME280;15675;52.870;-1.416;2024-01-10T06:28:22;102684.28;;;3.38;100.00
28448;BME280;15675;52.870;-1.416;2024-01-10T06:30:49;102676.56;;;3.52;100.00
28448;BME280;15675;52.870;-1.416;2024-01-10T06:33:15;102670.44;;;3.23;100.00
28448;BME280;15675;52.870;-1.416;2024-01-10T06:35:41;102676.75;;;3.41;100.00
28448;BME280;15675;52.870;-1.416;2024-01-10T06:38:09;102676.06;;;3.31;100.00
28448;BME280;15675;52.870;-1.416;2024-01-10T06:40:35;102682.88;;;3.30;100.00
28448;BME280;15675;52.870;-1.416;2024-01-10T06:43:02;102682.06;;;3.18;100.00
28448;BME280;15675;52.870;-1.416;2024-01-10T06:45:28;102692.53;;;2.94;100.00
28448;BME280;15675;52.870;-1.416;2024-01-10T06:47:53;102687.09;;;3.03;100.00
28448;BME280;15675;52.870;-1.416;2024-01-10T06:50:19;102686.03;;;3.13;100.00
28448;BME280;15675;52.870;-1.416;2024-01-10T06:52:45;102686.22;;;3.16;100.00
28448;BME280;15675;52.870;-1.416;2024-01-10T06:55:11;102680.63;;;3.08;100.00
28448;BME280;15675;52.870;-1.416;2024-01-10T06:57:37;102686.44;;;3.19;100.00
28448;BME280;15675;52.870;-1.416;2024-01-10T07:00:03;102690.28;;;3.25;100.00
28448;BME280;15675;52.870;-1.416;2024-01-10T07:02:32;102691.94;;;3.25;100.00
28448;BME280;15675;52.870;-1.416;2024-01-10T07:04:58;102685.75;;;3.08;100.00
28448;BME280;15675;52.870;-1.416;2024-01-10T07:07:23;102696.72;;;3.32;100.00
28448;BME280;15675;52.870;-1.416;2024-01-10T07:09:49;102684.38;;;3.26;100.00
28448;BME280;15675;52.870;-1.416;2024-01-10T07:12:14;102687.91;;;3.55;100.00
28448;BME280;15675;52.870;-1.416;2024-01-10T07:14:40;102686.66;;;3.35;100.00
28448;BME280;15675;52.870;-1.416;2024-01-10T07:17:06;102685.97;;;3.38;100.00
28448;BME280;15675;52.870;-1.416;2024-01-10T07:19:31;102685.25;;;3.27;100.00
28448;BME280;15675;52.870;-1.416;2024-01-10T07:21:57;102685.25;;;3.40;100.00
28448;BME280;15675;52.870;-1.416;2024-01-10T07:24:23;102691.97;;;3.65;100.00
28448;BME280;15675;52.870;-1.416;2024-01-10T07:26:48;102682.69;;;3.40;100.00
28448;BME280;15675;52.870;-1.416;2024-01-10T07:29:14;102685.63;;;3.33;100.00
28448;BME280;15675;52.870;-1.416;2024-01-10T07:31:39;102689.00;;;3.45;100.00
28448;BME280;15675;52.870;-1.416;2024-01-10T07:34:05;102683.28;;;3.36;100.00
28448;BME280;15675;52.870;-1.416;2024-01-10T07:36:41;102687.22;;;3.18;100.00
28448;BME280;15675;52.870;-1.416;2024-01-10T07:39:07;102697.78;;;3.36;100.00
28448;BME280;15675;52.870;-1.416;2024-01-10T07:41:33;102700.94;;;3.32;100.00
28448;BME280;15675;52.870;-1.416;2024-01-10T07:43:58;102703.91;;;3.51;100.00
28448;BME280;15675;52.870;-1.416;2024-01-10T07:46:24;102701.75;;;3.44;100.00
28448;BME280;15675;52.870;-1.416;2024-01-10T07:48:49;102709.25;;;3.54;100.00
28448;BME280;15675;52.870;-1.416;2024-01-10T07:51:15;102694.53;;;3.52;100.00
28448;BME280;15675;52.870;-1.416;2024-01-10T07:53:40;102705.78;;;3.67;100.00
28448;BME280;15675;52.870;-1.416;2024-01-10T07:56:06;102703.63;;;3.47;100.00
28448;BME280;15675;52.870;-1.416;2024-01-10T07:58:31;102706.59;;;3.53;100.00
28448;BME280;15675;52.870;-1.416;2024-01-10T08:00:57;102702.66;;;3.58;100.00
28448;BME280;15675;52.870;-1.416;2024-01-10T08:03:22;102704.44;;;3.32;100.00
28448;BME280;15675;52.870;-1.416;2024-01-10T08:05:48;102703.31;;;3.28;100.00
28448;BME280;15675;52.870;-1.416;2024-01-10T08:08:14;102705.38;;;3.48;100.00
28448;BME280;15675;52.870;-1.416;2024-01-10T08:10:40;102698.09;;;3.54;100.00
28448;BME280;15675;52.870;-1.416;2024-01-10T08:13:06;102704.91;;;3.67;100.00
28448;BME280;15675;52.870;-1.416;2024-01-10T08:15:31;102701.03;;;3.73;100.00
28448;BME280;15675;52.870;-1.416;2024-01-10T08:18:00;102714.28;;;3.66;100.00
28448;BME280;15675;52.870;-1.416;2024-01-10T08:20:28;102710.44;;;3.46;100.00
28448;BME280;15675;52.870;-1.416;2024-01-10T08:22:53;102718.03;;;3.71;100.00
28448;BME280;15675;52.870;-1.416;2024-01-10T08:25:19;102709.94;;;3.65;100.00
28448;BME280;15675;52.870;-1.416;2024-01-10T08:27:44;102715.34;;;3.83;100.00
28448;BME280;15675;52.870;-1.416;2024-01-10T08:30:11;102713.88;;;3.60;100.00
28448;BME280;15675;52.870;-1.416;2024-01-10T08:32:36;102704.22;;;3.56;100.00
28448;BME280;15675;52.870;-1.416;2024-01-10T08:35:05;102722.88;;;3.53;100.00
28448;BME280;15675;52.870;-1.416;2024-01-10T08:37:30;102716.44;;;3.73;100.00
28448;BME280;15675;52.870;-1.416;2024-01-10T08:39:57;102719.50;;;3.68;100.00
28448;BME280;15675;52.870;-1.416;2024-01-10T08:42:22;102700.84;;;3.57;100.00
28448;BME280;15675;52.870;-1.416;2024-01-10T08:44:48;102711.00;;;3.69;100.00
28448;BME280;15675;52.870;-1.416;2024-01-10T08:47:15;102716.25;;;3.70;100.00
28448;BME280;15675;52.870;-1.416;2024-01-10T08:49:40;102719.88;;;3.87;100.00
28448;BME280;15675;52.870;-1.416;2024-01-10T08:52:06;102714.56;;;3.84;100.00
28448;BME280;15675;52.870;-1.416;2024-01-10T08:54:33;102719.56;;;3.96;100.00
28448;BME280;15675;52.870;-1.416;2024-01-10T08:56:59;102725.13;;;3.89;100.00
28448;BME280;15675;52.870;-1.416;2024-01-10T08:59:26;102721.97;;;4.21;100.00
28448;BME280;15675;52.870;-1.416;2024-01-10T09:01:53;102719.66;;;4.11;100.00
28448;BME280;15675;52.870;-1.416;2024-01-10T09:04:18;102718.97;;;4.13;100.00
28448;BME280;15675;52.870;-1.416;2024-01-10T09:06:45;102712.56;;;4.22;100.00
28448;BME280;15675;52.870;-1.416;2024-01-10T09:09:10;102712.66;;;3.95;100.00
28448;BME280;15675;52.870;-1.416;2024-01-10T09:11:38;102720.56;;;3.98;100.00
28448;BME280;15675;52.870;-1.416;2024-01-10T09:14:03;102722.44;;;4.01;100.00
28448;BME280;15675;52.870;-1.416;2024-01-10T09:16:29;102718.38;;;4.04;100.00
28448;BME280;15675;52.870;-1.416;2024-01-10T09:18:54;102720.16;;;4.05;100.00
28448;BME280;15675;52.870;-1.416;2024-01-10T09:21:23;102736.53;;;4.21;100.00
28448;BME280;15675;52.870;-1.416;2024-01-10T09:23:49;102729.03;;;4.10;100.00
28448;BME280;15675;52.870;-1.416;2024-01-10T09:26:17;102723.25;;;4.28;100.00
28448;BME280;15675;52.870;-1.416;2024-01-10T09:28:43;102726.34;;;4.22;100.00
28448;BME280;15675;52.870;-1.416;2024-01-10T09:31:09;102719.19;;;4.31;100.00
28448;BME280;15675;52.870;-1.416;2024-01-10T09:33:34;102726.69;;;4.42;100.00
28448;BME280;15675;52.870;-1.416;2024-01-10T09:36:00;102737.69;;;4.54;100.00
28448;BME280;15675;52.870;-1.416;2024-01-10T09:38:25;102727.50;;;4.56;100.00
28448;BME280;15675;52.870;-1.416;2024-01-10T09:40:57;102732.03;;;4.60;100.00
28448;BME280;15675;52.870;-1.416;2024-01-10T09:43:26;102715.81;;;4.76;100.00
28448;BME280;15675;52.870;-1.416;2024-01-10T09:45:53;102724.53;;;4.93;100.00
28448;BME280;15675;52.870;-1.416;2024-01-10T09:48:19;102720.53;;;4.83;100.00
28448;BME280;15675;52.870;-1.416;2024-01-10T09:50:46;102728.59;;;4.59;100.00
28448;BME280;15675;52.870;-1.416;2024-01-10T09:53:22;102723.00;;;4.81;100.00
28448;BME280;15675;52.870;-1.416;2024-01-10T09:55:50;102724.81;;;4.97;100.00
28448;BME280;15675;52.870;-1.416;2024-01-10T09:58:16;102723.00;;;4.66;100.00
28448;BME280;15675;52.870;-1.416;2024-01-10T10:00:42;102722.78;;;4.92;100.00
28448;BME280;15675;52.870;-1.416;2024-01-10T10:03:08;102723.28;;;4.71;100.00
28448;BME280;15675;52.870;-1.416;2024-01-10T10:05:41;102723.09;;;4.40;100.00
28448;BME280;15675;52.870;-1.416;2024-01-10T10:08:08;102727.13;;;4.49;100.00
28448;BME280;15675;52.870;-1.416;2024-01-10T10:10:35;102719.91;;;4.72;100.00
28448;BME280;15675;52.870;-1.416;2024-01-10T10:13:00;102724.91;;;4.41;100.00
28448;BME280;15675;52.870;-1.416;2024-01-10T10:15:27;102727.63;;;4.87;100.00
28448;BME280;15675;52.870;-1.416;2024-01-10T10:17:53;102733.84;;;4.47;100.00
28448;BME280;15675;52.870;-1.416;2024-01-10T10:20:25;102740.66;;;4.60;100.00
28448;BME280;15675;52.870;-1.416;2024-01-10T10:23:04;102731.78;;;4.70;100.00
28448;BME280;15675;52.870;-1.416;2024-01-10T10:25:42;102724.50;;;4.63;100.00
28448;BME280;15675;52.870;-1.416;2024-01-10T10:28:08;102724.28;;;4.73;100.00
28448;BME280;15675;52.870;-1.416;2024-01-10T10:30:33;102733.94;;;5.07;100.00
28448;BME280;15675;52.870;-1.416;2024-01-10T10:33:01;102725.88;;;4.86;100.00
28448;BME280;15675;52.870;-1.416;2024-01-10T10:35:26;102724.03;;;5.13;100.00
28448;BME280;15675;52.870;-1.416;2024-01-10T10:37:53;102722.31;;;5.14;100.00
28448;BME280;15675;52.870;-1.416;2024-01-10T10:40:22;102717.72;;;5.08;100.00
28448;BME280;15675;52.870;-1.416;2024-01-10T10:42:57;102709.81;;;5.05;100.00
28448;BME280;15675;52.870;-1.416;2024-01-10T10:45:23;102707.59;;;4.96;100.00
28448;BME280;15675;52.870;-1.416;2024-01-10T10:47:57;102722.94;;;5.10;100.00
28448;BME280;15675;52.870;-1.416;2024-01-10T10:50:24;102716.66;;;5.34;100.00
28448;BME280;15675;52.870;-1.416;2024-01-10T10:52:51;102702.88;;;5.34;100.00
28448;BME280;15675;52.870;-1.416;2024-01-10T10:55:18;102700.03;;;5.14;100.00
28448;BME280;15675;52.870;-1.416;2024-01-10T10:57:48;102694.44;;;5.36;100.00
28448;BME280;15675;52.870;-1.416;2024-01-10T11:00:19;102700.19;;;5.47;100.00
28448;BME280;15675;52.870;-1.416;2024-01-10T11:02:45;102699.88;;;5.26;100.00
28448;BME280;15675;52.870;-1.416;2024-01-10T11:05:12;102703.03;;;5.52;100.00
28448;BME280;15675;52.870;-1.416;2024-01-10T11:07:39;102688.03;;;5.45;100.00
28448;BME280;15675;52.870;-1.416;2024-01-10T11:10:12;102688.56;;;5.39;100.00
28448;BME280;15675;52.870;-1.416;2024-01-10T11:23:43;102674.72;;;5.68;100.00
28448;BME280;15675;52.870;-1.416;2024-01-10T11:26:10;102678.81;;;5.65;100.00
28448;BME280;15675;52.870;-1.416;2024-01-10T11:28:36;102685.56;;;5.63;100.00
28448;BME280;15675;52.870;-1.416;2024-01-10T11:31:06;102684.69;;;5.62;100.00
28448;BME280;15675;52.870;-1.416;2024-01-10T11:33:36;102690.56;;;5.60;100.00
28448;BME280;15675;52.870;-1.416;2024-01-10T11:36:16;102682.75;;;5.58;100.00
28448;BME280;15675;52.870;-1.416;2024-01-10T11:41:23;102682.31;;;5.82;100.00
28448;BME280;15675;52.870;-1.416;2024-01-10T11:46:52;102686.00;;;6.02;100.00
28448;BME280;15675;52.870;-1.416;2024-01-10T11:49:18;102673.19;;;5.72;100.00
28448;BME280;15675;52.870;-1.416;2024-01-10T11:51:45;102683.28;;;5.84;100.00
28448;BME280;15675;52.870;-1.416;2024-01-10T11:54:11;102678.38;;;5.57;100.00
28448;BME280;15675;52.870;-1.416;2024-01-10T11:56:38;102678.13;;;5.52;100.00
28448;BME280;15675;52.870;-1.416;2024-01-10T11:59:09;102670.22;;;5.64;100.00
28448;BME280;15675;52.870;-1.416;2024-01-10T12:01:40;102658.88;;;5.77;100.00
28448;BME280;15675;52.870;-1.416;2024-01-10T12:04:06;102661.19;;;5.56;100.00
28448;BME280;15675;52.870;-1.416;2024-01-10T12:06:34;102672.56;;;5.45;100.00
28448;BME280;15675;52.870;-1.416;2024-01-10T12:09:01;102665.78;;;5.78;100.00
28448;BME280;15675;52.870;-1.416;2024-01-10T12:11:36;102652.44;;;5.85;100.00
28448;BME280;15675;52.870;-1.416;2024-01-10T12:14:02;102654.09;;;5.68;100.00
28448;BME280;15675;52.870;-1.416;2024-01-10T12:16:28;102650.00;;;5.72;100.00
28448;BME280;15675;52.870;-1.416;2024-01-10T12:18:54;102647.63;;;5.92;100.00
28448;BME280;15675;52.870;-1.416;2024-01-10T12:21:20;102646.88;;;5.78;100.00
28448;BME280;15675;52.870;-1.416;2024-01-10T12:23:46;102653.84;;;5.64;100.00
28448;BME280;15675;52.870;-1.416;2024-01-10T12:26:12;102646.38;;;5.68;100.00
28448;BME280;15675;52.870;-1.416;2024-01-10T12:28:39;102643.34;;;5.92;100.00
28448;BME280;15675;52.870;-1.416;2024-01-10T12:31:05;102636.88;;;5.84;100.00
28448;BME280;15675;52.870;-1.416;2024-01-10T12:33:33;102639.81;;;5.90;100.00
28448;BME280;15675;52.870;-1.416;2024-01-10T12:36:05;102634.75;;;6.25;100.00
28448;BME280;15675;52.870;-1.416;2024-01-10T12:38:32;102639.69;;;5.88;100.00
28448;BME280;15675;52.870;-1.416;2024-01-10T12:40:58;102638.59;;;5.83;100.00
28448;BME280;15675;52.870;-1.416;2024-01-10T12:43:23;102625.31;;;5.92;100.00
28448;BME280;15675;52.870;-1.416;2024-01-10T12:46:03;102632.16;;;5.92;100.00
28448;BME280;15675;52.870;-1.416;2024-01-10T12:48:28;102638.72;;;6.01;100.00
28448;BME280;15675;52.870;-1.416;2024-01-10T12:50:54;102626.94;;;5.90;100.00
28448;BME280;15675;52.870;-1.416;2024-01-10T12:53:20;102626.66;;;5.85;100.00
28448;BME280;15675;52.870;-1.416;2024-01-10T12:55:46;102624.94;;;6.17;100.00